Time;durP1;ratioP1;P1;durP2;ratioP2;P2;SDS_P1;SDS_P2;PMS_P1;PMS_P2;Temp;Humidity;BMP_temperature;BMP_pressure;BME280_temperature;BME280_humidity;BME280_pressure;Samples;Min_cycle;Max_cycle;Signal;HPM_P1;HPM_P2
2022/01/22 00:29:02;;;;;;;16.08;9.50;;;;;;;4.05;92.01;99565.78;4068818;29;20745;-85
2022/01/22 00:31:05;;;;;;;13.27;9.38;;;;;;;4.07;91.91;99555.44;4078230;29;20207;-85
2022/01/22 00:33:08;;;;;;;13.57;9.20;;;;;;;4.09;93.08;99553.66;4073906;29;20731;-82
2022/01/22 00:35:12;;;;;;;18.48;9.85;;;;;;;4.11;92.42;99554.50;4067692;29;20211;-82
2022/01/22 00:37:15;;;;;;;15.00;9.63;;;;;;;4.15;91.99;99553.53;4069110;29;20219;-83
2022/01/22 00:39:18;;;;;;;18.85;9.70;;;;;;;4.19;93.03;99552.63;4074001;29;20211;-85
2022/01/22 00:41:22;;;;;;;18.30;12.82;;;;;;;4.20;92.21;99550.84;4072321;29;20219;-85
2022/01/22 00:43:25;;;;;;;14.82;10.00;;;;;;;4.22;92.82;99551.69;4067547;29;20196;-85
2022/01/22 00:45:30;;;;;;;19.52;9.80;;;;;;;4.24;92.13;99539.59;4072000;29;20284;-83
2022/01/22 00:47:33;;;;;;;17.08;9.73;;;;;;;4.27;92.46;99547.28;4071936;29;20235;-83
2022/01/22 00:49:39;;;;;;;14.32;9.60;;;;;;;4.29;91.61;99534.34;4075401;29;20218;-82
2022/01/22 00:51:42;;;;;;;13.23;9.65;;;;;;;4.32;92.11;99539.44;4068302;29;20210;-83
2022/01/22 00:53:45;;;;;;;15.77;10.82;;;;;;;4.19;91.86;99535.38;4071609;29;20648;-82
2022/01/22 00:55:48;;;;;;;18.38;10.95;;;;;;;4.12;92.08;99539.00;4071359;29;20675;-82
2022/01/22 00:57:51;;;;;;;16.73;10.90;;;;;;;4.11;91.54;99544.19;4070781;29;20262;-82
2022/01/22 00:59:55;;;;;;;20.10;11.85;;;;;;;4.12;93.27;99540.69;4083699;29;20265;-82
2022/01/22 01:02:00;;;;;;;17.65;9.88;;;;;;;4.14;92.72;99537.22;4084660;28;20218;-82
2022/01/22 01:04:04;;;;;;;19.70;10.85;;;;;;;4.18;92.15;99546.63;4070510;29;20285;-83
2022/01/22 01:06:07;;;;;;;14.80;10.43;;;;;;;4.21;93.25;99537.06;4089885;29;20686;-83
2022/01/22 01:08:11;;;;;;;17.15;10.93;;;;;;;4.21;92.90;99539.66;4079596;29;20642;-82
2022/01/22 01:10:16;;;;;;;17.25;11.02;;;;;;;4.22;93.25;99541.34;4056753;29;20212;-83
2022/01/22 01:12:20;;;;;;;19.92;11.63;;;;;;;4.26;92.62;99542.97;4076458;29;20267;-82
2022/01/22 01:14:28;;;;;;;16.00;11.10;;;;;;;4.27;92.15;99542.09;4074891;29;20207;-83
2022/01/22 01:16:56;;;;;;;17.90;10.75;;;;;;;4.27;92.78;99546.44;4076940;29;20210;-82
2022/01/22 01:33:07;;;;;;;12.93;9.60;;;;;;;4.45;92.59;99556.34;4090809;28;20706;-84
2022/01/22 01:35:12;;;;;;;17.60;10.70;;;;;;;4.46;93.14;99548.56;4075098;29;20218;-83
2022/01/22 01:37:17;;;;;;;16.83;11.07;;;;;;;4.48;93.54;99549.41;4077992;29;20219;-83
2022/01/22 01:39:26;;;;;;;14.43;10.10;;;;;;;4.51;93.14;99561.41;4072095;29;20226;-84
2022/01/22 01:41:36;;;;;;;17.50;10.35;;;;;;;4.51;92.66;99558.81;4062281;29;20282;-83
2022/01/22 01:43:40;;;;;;;16.80;10.65;;;;;;;4.51;92.50;99554.50;4060143;29;20218;-84
2022/01/22 01:46:06;;;;;;;17.83;10.52;;;;;;;4.52;92.83;99563.09;4075598;29;20211;-83
2022/01/22 01:48:15;;;;;;;19.08;10.13;;;;;;;4.54;92.98;99557.03;4072950;29;20199;-84
2022/01/22 01:50:19;;;;;;;18.10;10.95;;;;;;;4.55;92.67;99560.47;4066677;29;20213;-83
2022/01/22 01:52:31;;;;;;;13.05;9.95;;;;;;;4.53;92.38;99557.91;4075823;29;20234;-83
2022/01/22 01:54:45;;;;;;;22.20;10.32;;;;;;;4.54;93.09;99562.19;4077846;29;20199;-82
2022/01/22 01:59:17;;;;;;;20.65;10.23;;;;;;;4.56;92.74;99560.44;4047321;29;20734;-83
2022/01/22 02:01:20;;;;;;;13.98;9.90;;;;;;;4.59;92.69;99560.38;4070948;29;20302;-83
2022/01/22 02:03:24;;;;;;;16.67;10.10;;;;;;;4.60;93.33;99564.66;4074371;29;20211;-82
2022/01/22 02:05:39;;;;;;;15.82;9.35;;;;;;;4.62;92.41;99569.78;4087469;29;20270;-84
2022/01/22 02:07:44;;;;;;;18.58;10.10;;;;;;;4.63;92.64;99574.94;4077364;29;20703;-83
2022/01/22 02:09:48;;;;;;;16.88;10.43;;;;;;;4.62;93.40;99578.38;4080284;29;20222;-83
2022/01/22 02:11:59;;;;;;;17.90;9.82;;;;;;;4.63;92.45;99568.88;4078316;29;20231;-83
2022/01/22 02:24:06;;;;;;;17.70;10.25;;;;;;;4.62;93.11;99557.72;4075763;29;20218;-82
2022/01/22 02:26:11;;;;;;;20.20;10.45;;;;;;;4.62;92.18;99557.72;4074153;29;20334;-82
2022/01/22 02:28:18;;;;;;;17.80;10.27;;;;;;;4.63;93.20;99549.09;4073113;29;20211;-83
2022/01/22 02:30:26;;;;;;;15.45;9.45;;;;;;;4.65;92.77;99543.91;4070523;29;20215;-83
2022/01/22 02:33:16;;;;;;;20.42;10.68;;;;;;;4.69;92.24;99551.50;4069547;29;20237;-83
2022/01/22 02:35:26;;;;;;;14.73;9.45;;;;;;;4.70;92.69;99555.81;4072046;29;20226;-83
2022/01/22 02:37:35;;;;;;;16.73;11.57;;;;;;;4.70;92.44;99555.81;4072689;29;20209;-82
2022/01/22 02:39:42;;;;;;;17.25;11.23;;;;;;;4.69;93.26;99543.75;4059788;29;20231;-83
2022/01/22 02:41:48;;;;;;;17.75;10.82;;;;;;;4.67;92.18;99545.53;4073409;29;20607;-82
2022/01/22 02:43:53;;;;;;;16.05;9.70;;;;;;;4.67;93.16;99545.53;4055047;29;20211;-83
2022/01/22 02:45:58;;;;;;;18.92;10.25;;;;;;;4.68;92.88;99543.81;4066377;29;20242;-82
2022/01/22 02:48:02;;;;;;;18.25;10.98;;;;;;;4.70;92.81;99540.31;4090625;29;20202;-83
2022/01/22 02:50:06;;;;;;;18.67;10.55;;;;;;;4.68;92.47;99542.91;4057445;29;20223;-83
2022/01/22 02:52:10;;;;;;;15.25;10.05;;;;;;;4.68;92.24;99539.50;4056668;29;20224;-82
2022/01/22 02:54:20;;;;;;;19.08;11.00;;;;;;;4.70;92.22;99529.97;4073774;29;20229;-82
2022/01/22 02:56:24;;;;;;;14.93;10.45;;;;;;;4.68;92.85;99527.41;4078858;29;20207;-82
2022/01/22 02:58:27;;;;;;;21.42;11.32;;;;;;;4.71;91.71;99529.09;4063391;29;20214;-82
2022/01/22 03:00:31;;;;;;;15.57;10.57;;;;;;;4.68;91.79;99533.50;4074540;28;20231;-83
2022/01/22 03:02:35;;;;;;;21.60;11.23;;;;;;;4.67;92.69;99524.03;4077719;29;20199;-83
2022/01/22 03:04:38;;;;;;;18.95;11.27;;;;;;;4.66;92.40;99527.50;4060515;29;20265;-83
2022/01/22 03:06:41;;;;;;;23.25;11.15;;;;;;;4.62;92.65;99533.63;4077190;29;20226;-83
2022/01/22 03:08:46;;;;;;;18.60;10.93;;;;;;;4.59;92.04;99529.38;4074887;29;20302;-82
2022/01/22 03:10:53;;;;;;;20.20;11.57;;;;;;;4.62;92.70;99526.72;4071336;29;20221;-82
2022/01/22 03:15:37;;;;;;;21.92;12.00;;;;;;;4.63;92.64;99538.75;3992013;29;20218;-82
2022/01/22 03:17:52;;;;;;;21.55;12.00;;;;;;;4.60;92.36;99532.78;4011406;29;20217;-83
2022/01/22 03:20:04;;;;;;;21.10;12.20;;;;;;;4.59;93.47;99526.78;4012019;29;20248;-83
2022/01/22 03:22:16;;;;;;;20.65;11.82;;;;;;;4.61;93.00;99517.25;4073432;29;20217;-83
2022/01/22 03:29:05;;;;;;;23.42;12.70;;;;;;;4.65;92.26;99526.66;4088800;29;20609;-83
2022/01/22 03:31:08;;;;;;;22.33;12.20;;;;;;;4.66;92.46;99518.03;4070390;29;20254;-82
2022/01/22 03:33:14;;;;;;;18.73;11.82;;;;;;;4.63;92.72;99510.34;4070665;29;20203;-82
2022/01/22 03:35:26;;;;;;;22.23;12.02;;;;;;;4.65;92.75;99510.31;4074829;29;20203;-83
2022/01/22 03:37:31;;;;;;;20.35;13.55;;;;;;;4.66;93.17;99518.03;4075342;29;22617;-83
2022/01/22 03:39:34;;;;;;;22.58;12.10;;;;;;;4.65;92.86;99528.41;4070412;29;20228;-82
2022/01/22 03:41:38;;;;;;;18.08;12.57;;;;;;;4.66;92.42;99528.38;4058574;29;20223;-83
2022/01/22 03:43:43;;;;;;;21.70;12.10;;;;;;;4.69;93.23;99528.25;4072283;28;20221;-83
2022/01/22 03:45:46;;;;;;;17.67;12.10;;;;;;;4.70;92.59;99535.13;4059481;29;20216;-83
2022/01/22 03:47:49;;;;;;;21.67;13.05;;;;;;;4.72;93.49;99528.19;4071177;29;20206;-83
2022/01/22 03:49:52;;;;;;;19.13;12.55;;;;;;;4.76;92.44;99529.84;4071067;29;20239;-82
2022/01/22 03:51:56;;;;;;;22.40;13.30;;;;;;;4.79;92.55;99529.78;4084022;28;20614;-82
2022/01/22 03:53:59;;;;;;;23.27;12.75;;;;;;;4.81;92.42;99530.56;4075910;29;20246;-82
2022/01/22 03:56:05;;;;;;;21.63;13.15;;;;;;;4.81;92.93;99534.03;4071720;29;20642;-83
2022/01/22 03:58:27;;;;;;;20.92;12.10;;;;;;;4.82;92.59;99524.53;4067156;29;20208;-83
2022/01/22 04:01:03;;;;;;;19.50;12.60;;;;;;;4.76;92.30;99529.84;4058824;29;20231;-82
2022/01/22 04:05:26;;;;;;;19.83;12.98;;;;;;;4.80;92.27;99532.31;4056837;29;20223;-83
2022/01/22 04:09:54;;;;;;;22.40;11.82;;;;;;;4.81;93.18;99522.81;4078490;29;20313;-82
2022/01/22 04:11:59;;;;;;;22.05;12.02;;;;;;;4.85;92.13;99524.47;4065665;29;20227;-83
2022/01/22 04:14:04;;;;;;;20.33;13.27;;;;;;;4.84;92.92;99518.47;4070712;29;20599;-82
2022/01/22 04:16:11;;;;;;;19.90;12.38;;;;;;;4.85;92.79;99521.88;4081317;29;20269;-83
2022/01/22 04:25:21;;;;;;;19.77;12.48;;;;;;;4.92;92.11;99531.19;4072728;29;20237;-83
2022/01/22 04:27:27;;;;;;;22.98;12.93;;;;;;;4.94;92.65;99524.25;4064757;29;20241;-83
2022/01/22 04:29:30;;;;;;;18.85;12.40;;;;;;;4.95;91.61;99531.13;4072851;29;20209;-83
2022/01/22 04:31:35;;;;;;;24.15;13.48;;;;;;;4.98;91.99;99529.31;4073916;29;20617;-83
2022/01/22 04:33:39;;;;;;;21.15;12.82;;;;;;;5.00;92.21;99529.28;4067944;29;20809;-83
2022/01/22 04:35:42;;;;;;;21.55;12.43;;;;;;;4.99;92.37;99532.75;4068762;29;20206;-83
2022/01/22 04:37:45;;;;;;;20.80;13.55;;;;;;;5.00;92.35;99540.47;4071908;29;20854;-83
2022/01/22 04:39:49;;;;;;;20.00;12.68;;;;;;;4.99;92.45;99543.06;4070665;29;20234;-83
2022/01/22 04:41:55;;;;;;;22.63;13.38;;;;;;;5.02;92.43;99540.41;4075183;29;20210;-83
2022/01/22 04:44:01;;;;;;;18.70;12.88;;;;;;;5.02;92.09;99541.28;4059120;29;20231;-83
2022/01/22 04:46:13;;;;;;;22.30;13.20;;;;;;;4.95;91.24;99533.72;4070865;29;20211;-83
2022/01/22 04:48:39;;;;;;;21.48;12.32;;;;;;;4.95;92.43;99528.53;4071139;29;20898;-82
2022/01/22 04:55:25;;;;;;;22.73;13.52;;;;;;;4.79;92.07;99522.03;4070096;29;20202;-83
2022/01/22 04:57:29;;;;;;;19.23;12.25;;;;;;;4.81;92.46;99533.16;4073493;29;20210;-83
2022/01/22 04:59:32;;;;;;;23.65;14.27;;;;;;;4.82;91.89;99535.72;4058044;29;20223;-82
2022/01/22 05:01:36;;;;;;;19.83;12.35;;;;;;;4.85;92.03;99538.22;4062784;29;20273;-83
2022/01/22 05:03:50;;;;;;;20.58;12.52;;;;;;;4.90;92.97;99531.25;4071957;29;20234;-83
2022/01/22 05:06:13;;;;;;;25.08;12.73;;;;;;;4.93;92.05;99527.72;4070599;29;20750;-83
2022/01/22 05:08:31;;;;;;;25.10;13.95;;;;;;;4.99;93.18;99537.91;4076123;29;20207;-83
2022/01/22 05:10:41;;;;;;;20.50;13.23;;;;;;;4.99;91.69;99537.91;4075210;29;20202;-83
2022/01/22 05:12:44;;;;;;;23.83;13.10;;;;;;;4.97;92.55;99539.69;4061508;29;20238;-83
2022/01/22 05:14:48;;;;;;;22.00;13.55;;;;;;;5.03;92.18;99547.31;4072623;29;20608;-83
2022/01/22 05:16:52;;;;;;;20.33;12.23;;;;;;;5.06;92.31;99537.72;4084113;29;20218;-83
2022/01/22 05:19:01;;;;;;;21.60;11.88;;;;;;;5.10;92.43;99535.91;4080653;29;20265;-83
2022/01/22 05:21:11;;;;;;;24.05;12.98;;;;;;;5.13;91.97;99538.44;4090735;29;20225;-83
2022/01/22 05:23:18;;;;;;;20.88;12.60;;;;;;;5.13;91.94;99537.56;4056468;29;20258;-83
2022/01/22 05:25:28;;;;;;;20.23;12.60;;;;;;;5.13;92.10;99540.13;4076122;29;20570;-83
2022/01/22 05:27:49;;;;;;;25.40;13.38;;;;;;;5.15;92.09;99524.59;4076870;29;20221;-83
2022/01/22 05:30:34;;;;;;;24.42;13.30;;;;;;;5.11;91.92;99533.28;4074874;29;21221;-83
2022/01/22 05:33:01;;;;;;;21.95;12.80;;;;;;;5.11;92.06;99543.63;4081357;29;20215;-83
2022/01/22 05:37:53;;;;;;;18.58;12.05;;;;;;;5.10;91.22;99560.06;4041558;29;20307;-82
2022/01/22 05:39:56;;;;;;;21.73;12.90;;;;;;;5.13;92.17;99556.53;4072100;29;20699;-83
2022/01/22 05:42:03;;;;;;;20.42;12.55;;;;;;;5.14;92.25;99556.50;4074674;29;20235;-83
2022/01/22 05:44:07;;;;;;;24.23;13.05;;;;;;;5.15;91.09;99561.63;4079116;29;20221;-83
2022/01/22 05:46:10;;;;;;;22.73;14.30;;;;;;;5.16;91.44;99567.66;4065018;29;20725;-82
2022/01/22 05:48:13;;;;;;;21.70;12.90;;;;;;;5.18;91.23;99560.72;4074007;29;20211;-83
2022/01/22 05:50:28;;;;;;;23.50;13.27;;;;;;;5.21;91.23;99563.22;4075651;29;20266;-83
2022/01/22 05:52:38;;;;;;;18.90;12.85;;;;;;;5.22;91.74;99563.19;4077858;29;20735;-83
2022/01/22 05:55:10;;;;;;;21.75;14.25;;;;;;;5.25;90.75;99563.13;4074662;29;21303;-83
2022/01/22 05:59:37;;;;;;;22.08;14.32;;;;;;;5.26;90.97;99558.78;4072607;29;20285;-83
2022/01/22 06:01:43;;;;;;;20.85;12.90;;;;;;;5.29;91.09;99557.00;4077106;29;20781;-84
2022/01/22 06:03:54;;;;;;;21.95;13.27;;;;;;;5.31;91.60;99557.81;4075373;29;20210;-82
2022/01/22 06:05:57;;;;;;;20.10;12.52;;;;;;;5.31;91.06;99564.72;4071137;29;20215;-82
2022/01/22 06:08:02;;;;;;;20.20;13.30;;;;;;;5.30;90.73;99561.25;4078188;29;20714;-82
2022/01/22 06:10:16;;;;;;;23.90;13.32;;;;;;;5.28;91.03;99563.03;4089676;29;20850;-82
2022/01/22 06:12:35;;;;;;;21.63;12.73;;;;;;;5.28;91.50;99557.88;4072340;29;20705;-82
2022/01/22 06:14:38;;;;;;;23.48;12.73;;;;;;;5.27;91.06;99568.25;4087487;28;20211;-82
2022/01/22 06:16:42;;;;;;;21.60;13.70;;;;;;;5.25;91.25;99565.69;4074591;29;20703;-82
2022/01/22 06:19:10;;;;;;;23.25;12.80;;;;;;;5.26;90.62;99563.97;4062597;29;20235;-85
2022/01/22 06:21:14;;;;;;;21.55;13.48;;;;;;;5.26;90.84;99564.81;4060871;29;20234;-85
2022/01/22 06:23:18;;;;;;;23.05;14.15;;;;;;;5.25;91.05;99562.28;4075055;29;20208;-83
2022/01/22 06:25:22;;;;;;;19.85;11.93;;;;;;;5.26;91.28;99561.38;4073013;29;20219;-83
2022/01/22 06:27:26;;;;;;;25.10;13.90;;;;;;;5.26;90.59;99570.00;4078039;29;20226;-83
2022/01/22 06:29:29;;;;;;;18.73;13.40;;;;;;;5.23;91.25;99570.06;4075041;29;20207;-82
2022/01/22 06:31:32;;;;;;;22.67;13.55;;;;;;;5.22;91.46;99580.44;4061877;29;20314;-82
2022/01/22 06:33:35;;;;;;;21.08;13.30;;;;;;;5.22;91.37;99589.03;4074115;29;20215;-81
2022/01/22 06:35:38;;;;;;;24.27;14.18;;;;;;;5.23;90.87;99585.59;4062276;29;20215;-82
2022/01/22 06:37:42;;;;;;;22.85;13.65;;;;;;;5.23;91.27;99580.41;4075155;29;20215;-81
2022/01/22 06:42:48;;;;;;;24.25;14.45;;;;;;;5.22;91.32;99588.22;4070746;29;21182;-82
2022/01/22 06:44:57;;;;;;;24.40;13.75;;;;;;;5.22;90.98;99588.22;4060365;29;20240;-82
2022/01/22 06:47:09;;;;;;;21.35;13.60;;;;;;;5.25;91.43;99595.91;4070203;29;20213;-82
2022/01/22 06:49:30;;;;;;;26.70;13.85;;;;;;;5.26;91.33;99600.16;4067246;29;20230;-82
2022/01/22 06:52:06;;;;;;;21.05;13.48;;;;;;;5.24;90.58;99607.94;4065524;29;20214;-84
2022/01/22 06:54:12;;;;;;;23.05;13.25;;;;;;;5.24;90.63;99604.53;4069924;29;20233;-84
2022/01/22 06:56:20;;;;;;;23.75;14.52;;;;;;;5.23;91.16;99602.81;4073997;29;20589;-84
2022/01/22 06:58:45;;;;;;;25.90;14.45;;;;;;;5.24;90.99;99599.34;4075860;29;20614;-84
2022/01/22 07:00:48;;;;;;;26.77;13.55;;;;;;;5.26;91.41;99611.38;4074324;29;20291;-84
2022/01/22 07:02:58;;;;;;;22.35;13.52;;;;;;;5.28;91.40;99616.50;4076133;29;20217;-84
2022/01/22 07:05:01;;;;;;;24.30;13.55;;;;;;;5.29;91.13;99611.31;4061453;29;20294;-84
2022/01/22 07:07:21;;;;;;;25.17;14.00;;;;;;;5.29;90.84;99611.31;4078596;29;20314;-84
2022/01/22 07:09:26;;;;;;;20.77;12.95;;;;;;;5.26;91.38;99603.63;4077307;29;20214;-84
2022/01/22 07:11:31;;;;;;;28.27;14.13;;;;;;;5.23;91.32;99606.28;4069045;29;20199;-84
2022/01/22 07:13:35;;;;;;;22.33;13.23;;;;;;;5.24;91.76;99602.78;4088722;29;20211;-84
2022/01/22 07:15:38;;;;;;;19.27;12.48;;;;;;;5.27;91.03;99594.13;4058694;29;21272;-84
2022/01/22 07:17:48;;;;;;;20.23;12.90;;;;;;;5.28;90.91;99591.50;4070720;29;20307;-84
2022/01/22 07:19:53;;;;;;;21.48;13.40;;;;;;;5.24;91.43;99591.59;4073820;29;20223;-84
2022/01/22 07:22:09;;;;;;;26.98;14.75;;;;;;;5.28;91.69;99594.06;4085739;29;20246;-83
2022/01/22 07:24:30;;;;;;;23.05;12.18;;;;;;;5.28;91.25;99611.34;4090548;28;20210;-84
2022/01/22 07:26:38;;;;;;;24.27;13.90;;;;;;;5.25;91.08;99612.25;4073430;29;20215;-84
2022/01/22 07:28:48;;;;;;;21.83;13.85;;;;;;;5.23;91.00;99598.50;4074244;29;20301;-84
2022/01/22 07:30:52;;;;;;;22.42;13.60;;;;;;;5.22;91.39;99603.72;4075840;29;20215;-84
2022/01/22 07:32:57;;;;;;;24.33;14.38;;;;;;;5.19;91.41;99609.81;4072728;29;20804;-84
2022/01/22 07:35:00;;;;;;;20.70;13.70;;;;;;;5.19;91.65;99611.56;4056834;29;20263;-84
2022/01/22 07:37:05;;;;;;;23.58;14.75;;;;;;;5.16;92.08;99607.28;4086974;29;20254;-84
2022/01/22 07:39:09;;;;;;;24.10;13.57;;;;;;;5.14;91.86;99611.66;4084126;29;20236;-84
2022/01/22 07:41:27;;;;;;;20.75;13.20;;;;;;;5.13;91.79;99608.22;4085724;28;20218;-84
2022/01/22 07:43:48;;;;;;;20.27;12.85;;;;;;;5.16;92.31;99609.88;4073784;29;20569;-83
2022/01/22 07:46:13;;;;;;;22.83;13.10;;;;;;;5.19;91.72;99604.63;4069429;29;20215;-84
2022/01/22 07:48:25;;;;;;;23.25;13.43;;;;;;;5.19;92.31;99593.44;4075781;29;20214;-84
2022/01/22 07:50:46;;;;;;;22.55;13.18;;;;;;;5.21;92.00;99602.84;4069133;29;20243;-84
2022/01/22 07:52:49;;;;;;;23.67;13.60;;;;;;;5.19;91.94;99617.56;4074839;29;20211;-84
2022/01/22 07:54:53;;;;;;;24.17;13.68;;;;;;;5.18;91.71;99626.19;4064675;29;20213;-84
2022/01/22 07:56:56;;;;;;;28.13;13.82;;;;;;;5.20;92.30;99621.84;4067366;29;20207;-84
2022/01/22 07:59:01;;;;;;;25.05;13.95;;;;;;;5.24;92.59;99620.03;4075102;29;20218;-84
2022/01/22 08:01:08;;;;;;;22.25;14.10;;;;;;;5.25;91.57;99627.75;4057461;29;20225;-84
2022/01/22 08:03:37;;;;;;;21.90;14.30;;;;;;;5.27;91.76;99628.56;4075450;29;20215;-84
2022/01/22 08:05:59;;;;;;;24.92;14.82;;;;;;;5.26;91.73;99626.88;4065748;29;20577;-84
2022/01/22 08:08:21;;;;;;;21.38;13.20;;;;;;;5.28;92.22;99629.44;4068058;29;20250;-82
2022/01/22 08:10:56;;;;;;;22.83;13.75;;;;;;;5.30;91.84;99632.84;4032568;29;20215;-84
2022/01/22 08:12:59;;;;;;;27.85;14.10;;;;;;;5.28;92.00;99632.88;4057403;29;20230;-84
2022/01/22 08:15:04;;;;;;;22.52;13.35;;;;;;;5.28;91.88;99630.28;4062832;29;20220;-84
2022/01/22 08:17:07;;;;;;;19.25;12.68;;;;;;;5.27;92.25;99640.66;4054961;29;20693;-84
2022/01/22 08:19:12;;;;;;;24.23;13.73;;;;;;;5.27;92.27;99644.09;4058512;29;20211;-84
2022/01/22 08:21:16;;;;;;;20.30;13.60;;;;;;;5.22;92.31;99645.94;4076960;29;20202;-84
2022/01/22 08:23:38;;;;;;;26.48;14.82;;;;;;;5.12;92.51;99628.06;4072221;29;20301;-84
2022/01/22 08:25:56;;;;;;;30.90;17.25;;;;;;;4.94;93.17;99619.88;4075337;29;20224;-84
2022/01/22 08:30:36;;;;;;;24.65;13.63;;;;;;;4.80;93.65;99632.25;4076542;29;20215;-84
2022/01/22 08:37:18;;;;;;;20.73;14.15;;;;;;;5.03;93.77;99658.44;4072764;29;20715;-85
2022/01/22 08:39:22;;;;;;;23.20;13.55;;;;;;;5.06;93.56;99660.97;4071693;29;20311;-82
2022/01/22 08:41:29;;;;;;;21.67;13.80;;;;;;;5.11;93.95;99659.13;4070383;29;20256;-84
2022/01/22 08:43:32;;;;;;;24.60;13.50;;;;;;;5.13;93.23;99657.34;4086318;29;20277;-84
2022/01/22 08:45:37;;;;;;;25.55;13.95;;;;;;;5.19;93.66;99655.50;4071551;29;20326;-84
2022/01/22 08:47:41;;;;;;;18.60;12.85;;;;;;;5.23;93.19;99659.69;4058408;29;20283;-83
2022/01/22 08:49:45;;;;;;;30.05;13.85;;;;;;;5.28;93.54;99655.31;4071033;29;20202;-84
2022/01/22 08:51:49;;;;;;;24.58;13.75;;;;;;;5.30;92.67;99662.13;4075149;29;20599;-84
2022/01/22 08:53:55;;;;;;;21.40;13.07;;;;;;;5.35;92.75;99657.72;4069271;29;20630;-84
2022/01/22 08:56:00;;;;;;;21.88;12.82;;;;;;;5.37;92.05;99665.44;4070779;29;20245;-83
2022/01/22 08:58:04;;;;;;;20.10;11.88;;;;;;;5.39;92.31;99655.91;4058260;29;20222;-83
2022/01/22 09:00:30;;;;;;;25.65;13.13;;;;;;;5.39;91.78;99654.16;4064255;29;20260;-84
2022/01/22 09:02:46;;;;;;;26.25;13.80;;;;;;;5.41;92.78;99654.13;4057599;29;20718;-84
2022/01/22 09:04:57;;;;;;;22.27;12.27;;;;;;;5.44;91.75;99652.34;4070649;29;20600;-84
2022/01/22 09:07:18;;;;;;;20.83;12.27;;;;;;;5.48;91.96;99674.63;4073419;29;20235;-83
2022/01/22 09:09:32;;;;;;;21.45;13.45;;;;;;;5.49;91.84;99671.19;4070222;29;20258;-83
2022/01/22 09:11:41;;;;;;;25.30;13.23;;;;;;;5.51;91.43;99669.41;4077359;29;20233;-83
2022/01/22 09:13:57;;;;;;;18.45;13.30;;;;;;;5.53;91.60;99677.97;4072650;29;20790;-83
2022/01/22 09:16:05;;;;;;;20.83;12.98;;;;;;;5.49;91.63;99676.34;4067148;29;20220;-83
2022/01/22 09:18:10;;;;;;;19.90;12.45;;;;;;;5.54;91.04;99673.66;4076512;29;20269;-83
2022/01/22 09:20:14;;;;;;;20.77;13.27;;;;;;;5.51;90.91;99678.91;4079788;29;20219;-83
2022/01/22 09:22:18;;;;;;;18.80;12.65;;;;;;;5.49;91.17;99684.09;4075880;29;20703;-84
2022/01/22 09:24:24;;;;;;;24.23;12.85;;;;;;;5.51;91.59;99682.31;4076821;29;20239;-84
2022/01/22 09:26:28;;;;;;;22.42;13.55;;;;;;;5.55;91.26;99689.16;4090110;29;20640;-84
2022/01/22 09:28:34;;;;;;;21.30;13.57;;;;;;;5.58;91.01;99690.78;4074256;29;20243;-83
2022/01/22 09:30:38;;;;;;;21.48;13.10;;;;;;;5.62;91.86;99698.44;4071494;29;20204;-84
2022/01/22 09:32:41;;;;;;;22.38;14.30;;;;;;;5.64;91.78;99696.69;4088858;29;20244;-84
2022/01/22 09:35:05;;;;;;;16.77;11.93;;;;;;;5.66;91.33;99695.75;4067889;29;20286;-83
2022/01/22 09:37:12;;;;;;;22.90;16.05;;;;;;;5.66;91.37;99694.91;4073076;29;20249;-84
2022/01/22 09:39:29;;;;;;;21.45;13.75;;;;;;;5.69;91.48;99698.28;4070777;29;20228;-83
2022/01/22 09:41:42;;;;;;;25.88;14.00;;;;;;;5.71;91.22;99703.41;4061974;29;20696;-84
2022/01/22 09:44:20;;;;;;;21.13;13.77;;;;;;;5.70;91.05;99702.56;4060828;29;20223;-84
2022/01/22 10:17:14;;;;;;;20.73;13.60;;;;;;;5.81;91.00;99721.31;3998725;29;20264;-88
2022/01/22 10:19:18;;;;;;;20.45;13.18;;;;;;;5.81;90.75;99716.13;3987564;29;20229;-87
2022/01/22 10:21:22;;;;;;;22.13;14.00;;;;;;;5.78;91.02;99710.19;4007921;29;20244;-88
2022/01/22 10:23:26;;;;;;;21.70;13.05;;;;;;;5.77;91.20;99703.31;4001743;29;20230;-88
2022/01/22 10:25:35;;;;;;;24.75;14.30;;;;;;;5.80;91.22;99703.22;3987795;29;20552;-90
2022/01/22 10:27:45;;;;;;;20.77;14.25;;;;;;;5.82;91.05;99704.91;4012503;29;20213;-89
2022/01/22 10:29:51;;;;;;;26.45;17.40;;;;;;;5.84;91.46;99702.28;4000949;29;20571;-89
2022/01/22 10:32:01;;;;;;;23.95;13.82;;;;;;;5.82;91.53;99704.06;3986418;29;20211;-90
2022/01/22 10:34:44;;;;;;;20.52;12.88;;;;;;;5.80;91.51;99703.22;3954270;29;20223;-89
2022/01/22 10:37:06;;;;;;;20.52;13.68;;;;;;;5.82;91.40;99702.31;3953570;29;20222;-89
2022/01/22 10:39:25;;;;;;;22.92;13.60;;;;;;;5.84;91.50;99699.69;3950165;29;20250;-89
2022/01/22 10:41:37;;;;;;;22.13;13.02;;;;;;;5.83;91.21;99697.97;3981628;29;20313;-89
2022/01/22 10:43:51;;;;;;;20.48;14.23;;;;;;;5.79;91.56;99696.38;3986324;29;20231;-89
2022/01/22 10:46:02;;;;;;;27.58;14.55;;;;;;;5.83;91.42;99704.03;4001328;29;20682;-89
2022/01/22 10:48:20;;;;;;;26.35;14.70;;;;;;;5.84;91.09;99689.34;3981895;29;20211;-89
2022/01/22 10:50:25;;;;;;;19.83;14.10;;;;;;;5.83;91.39;99692.81;3982527;29;20375;-88
2022/01/22 10:52:31;;;;;;;19.58;14.05;;;;;;;5.82;91.63;99676.44;3984560;29;20262;-88
2022/01/22 10:54:36;;;;;;;22.30;13.30;;;;;;;5.79;91.20;99675.66;3998423;29;20216;-88
2022/01/22 10:56:41;;;;;;;24.17;13.95;;;;;;;5.78;91.72;99676.53;3983149;29;20586;-88
2022/01/22 10:59:01;;;;;;;22.92;13.52;;;;;;;5.80;91.59;99679.94;3982014;29;20302;-90
2022/01/22 11:01:06;;;;;;;24.65;14.02;;;;;;;5.82;91.87;99681.63;3983893;29;20234;-90
2022/01/22 11:03:20;;;;;;;24.17;15.45;;;;;;;5.80;91.52;99680.81;3980633;29;20260;-88
2022/01/22 11:05:37;;;;;;;23.90;14.00;;;;;;;5.83;91.87;99685.03;3997672;29;20297;-90
2022/01/22 11:07:40;;;;;;;21.98;14.15;;;;;;;5.84;92.23;99692.78;3995723;29;20214;-90
2022/01/22 11:09:44;;;;;;;23.67;14.55;;;;;;;5.91;91.91;99683.97;3995199;29;20220;-90
2022/01/22 11:11:50;;;;;;;23.33;14.55;;;;;;;5.93;91.95;99676.19;3994765;29;20210;-93
2022/01/22 11:13:53;;;;;;;22.20;14.77;;;;;;;5.93;92.18;99671.00;3998031;29;20241;-92
2022/01/22 11:15:56;;;;;;;26.83;17.75;;;;;;;5.96;92.03;99678.69;3966075;29;20310;-92
2022/01/22 11:18:00;;;;;;;29.92;17.38;;;;;;;5.96;92.04;99681.28;3968510;29;20624;-90
2022/01/22 11:20:05;;;;;;;27.10;16.95;;;;;;;5.95;92.51;99684.75;3980428;29;20219;-90
2022/01/22 11:22:11;;;;;;;23.40;15.93;;;;;;;5.98;92.09;99688.09;3993990;29;20210;-90
2022/01/22 11:24:16;;;;;;;28.63;16.27;;;;;;;5.99;92.26;99687.22;3994332;29;20236;-90
2022/01/22 11:26:21;;;;;;;27.95;15.73;;;;;;;6.04;92.03;99681.94;3966294;29;20601;-90
2022/01/22 11:28:27;;;;;;;21.40;15.27;;;;;;;6.07;91.98;99689.63;3982195;29;20244;-91
2022/01/22 11:30:31;;;;;;;26.08;16.55;;;;;;;6.07;92.00;99690.47;3966158;29;20215;-92
2022/01/22 11:32:37;;;;;;;25.98;15.50;;;;;;;6.11;91.96;99679.16;3995828;29;20237;-90
2022/01/22 11:34:42;;;;;;;20.15;14.68;;;;;;;6.14;91.91;99679.06;3967358;29;20652;-90
2022/01/22 11:36:49;;;;;;;22.90;14.07;;;;;;;6.19;92.50;99683.25;3981901;29;20226;-90
2022/01/22 11:38:55;;;;;;;21.98;13.93;;;;;;;6.24;91.71;99691.75;3982994;29;20222;-91
2022/01/22 11:41:09;;;;;;;22.08;14.45;;;;;;;6.25;91.49;99688.25;3980974;29;20789;-90
2022/01/22 11:43:20;;;;;;;24.73;14.77;;;;;;;6.25;91.52;99687.41;3982952;29;20215;-91
2022/01/22 11:45:29;;;;;;;18.80;13.45;;;;;;;6.28;91.73;99684.75;3996025;29;20237;-90
2022/01/22 11:47:32;;;;;;;20.48;14.63;;;;;;;6.26;91.41;99684.78;3990323;29;20221;-89
2022/01/22 11:49:36;;;;;;;23.90;16.45;;;;;;;6.31;91.55;99680.31;3966339;29;20805;-89
2022/01/22 11:51:40;;;;;;;21.88;15.18;;;;;;;6.38;91.28;99675.84;3984490;29;20211;-88
2022/01/22 11:53:56;;;;;;;18.80;12.60;;;;;;;6.39;91.38;99681.00;3983363;29;20211;-89
2022/01/22 11:56:23;;;;;;;17.27;12.35;;;;;;;6.40;90.21;99682.69;3983763;29;20266;-89
2022/01/22 11:58:26;;;;;;;22.02;12.75;;;;;;;6.41;90.01;99681.78;3983993;29;20210;-89
2022/01/22 12:00:30;;;;;;;17.38;13.00;;;;;;;6.41;89.94;99668.00;3983617;29;20882;-88
2022/01/22 12:02:33;;;;;;;19.98;11.82;;;;;;;6.42;89.50;99673.13;3986559;29;20663;-88
2022/01/22 12:05:04;;;;;;;18.40;11.32;;;;;;;6.43;89.88;99669.63;3984360;29;20710;-89